createdAt,value
2023-01-30T00:02:11.050Z,-3.60
2023-01-30T00:04:38.149Z,-3.60
2023-01-30T00:07:05.293Z,-3.80
2023-01-30T00:09:32.381Z,-3.70
2023-01-30T00:11:59.467Z,-4.00
2023-01-30T00:14:26.642Z,-3.70
2023-01-30T00:16:53.667Z,-3.90
2023-01-30T00:19:20.761Z,-4.00
2023-01-30T00:21:47.783Z,-4.10
2023-01-30T00:24:15.075Z,-3.60
2023-01-30T00:26:42.290Z,-3.70
2023-01-30T00:29:09.534Z,-3.90
2023-01-30T00:31:36.703Z,-3.80
2023-01-30T00:34:03.855Z,-4.20
2023-01-30T00:36:30.915Z,-3.90
2023-01-30T00:38:59.224Z,-4.30
2023-01-30T00:41:46.264Z,-4.10
2023-01-30T00:44:31.575Z,-4.10
2023-01-30T00:47:08.942Z,-4.10
2023-01-30T00:49:37.893Z,-3.80
2023-01-30T00:52:05.958Z,-4.00
2023-01-30T00:54:33.133Z,-4.40
2023-01-30T00:57:00.464Z,-4.20
2023-01-30T00:59:29.025Z,-4.00
2023-01-30T01:01:56.094Z,-4.30
2023-01-30T01:04:23.250Z,-2.80
2023-01-30T01:06:50.383Z,-4.20
2023-01-30T01:09:17.622Z,-4.50
2023-01-30T01:11:44.693Z,-4.30
2023-01-30T01:14:11.997Z,-4.30
2023-01-30T01:16:39.377Z,-4.40
2023-01-30T01:19:06.435Z,-4.40
2023-01-30T01:21:33.565Z,-4.30
2023-01-30T01:24:01.195Z,-4.50
2023-01-30T01:26:28.562Z,-4.40
2023-01-30T01:28:57.900Z,-4.50
2023-01-30T01:31:25.968Z,-4.60
2023-01-30T01:33:53.271Z,-4.40
2023-01-30T01:36:49.609Z,-4.40
2023-01-30T01:39:07.608Z,-4.60
2023-01-30T01:41:34.624Z,-4.60
2023-01-30T01:44:07.468Z,-4.60
2023-01-30T01:46:50.159Z,-4.60
2023-01-30T01:49:33.809Z,-4.50
2023-01-30T01:52:04.347Z,-4.60
2023-01-30T01:55:02.517Z,-4.70
2023-01-30T01:57:51.385Z,-4.80
2023-01-30T02:00:21.393Z,-4.70
2023-01-30T02:02:57.992Z,-4.60
2023-01-30T02:05:34.981Z,-4.60
2023-01-30T02:08:19.657Z,-4.60
2023-01-30T02:11:00.712Z,-4.90
2023-01-30T02:13:28.612Z,-4.70
2023-01-30T02:16:03.626Z,-4.60
2023-01-30T02:18:33.908Z,-4.60
2023-01-30T02:21:38.846Z,-5.00
2023-01-30T02:25:03.312Z,-4.80
2023-01-30T02:27:56.436Z,-5.00
2023-01-30T02:31:19.189Z,-4.80
2023-01-30T02:34:30.427Z,-5.10
2023-01-30T02:37:17.663Z,-5.10
2023-01-30T02:40:12.530Z,-5.40
2023-01-30T02:43:07.565Z,-5.30
2023-01-30T02:45:47.894Z,-5.10
2023-01-30T02:48:27.760Z,-5.40
2023-01-30T02:51:19.962Z,-5.40
2023-01-30T02:53:49.766Z,-5.20
2023-01-30T02:56:17.197Z,-5.20
2023-01-30T02:58:55.926Z,-5.30
2023-01-30T03:01:47.635Z,-5.00
2023-01-30T03:05:05.885Z,-5.10
2023-01-30T03:07:47.832Z,-4.90
2023-01-30T03:10:38.082Z,-5.20
2023-01-30T03:13:34.878Z,-5.50
2023-01-30T03:16:28.410Z,-5.10
2023-01-30T03:18:55.556Z,-5.40
2023-01-30T03:21:22.564Z,-5.20
2023-01-30T03:23:49.772Z,-4.40
2023-01-30T03:26:26.343Z,-5.50
2023-01-30T03:28:53.925Z,-5.10
2023-01-30T03:31:21.182Z,-5.20
2023-01-30T03:33:50.932Z,-5.20
2023-01-30T03:36:18.241Z,-5.10
2023-01-30T03:38:45.412Z,-5.50
2023-01-30T03:41:12.608Z,-5.40
2023-01-30T03:43:39.909Z,-5.20
2023-01-30T03:46:07.022Z,-5.50
2023-01-30T03:51:01.600Z,-5.50
2023-01-30T03:53:28.664Z,-5.40
2023-01-30T03:55:55.718Z,-5.30
2023-01-30T03:58:22.829Z,-5.60
2023-01-30T04:00:49.939Z,-5.50
2023-01-30T04:03:16.944Z,-5.50
2023-01-30T04:05:44.397Z,-5.50
2023-01-30T04:08:11.773Z,-5.60
2023-01-30T04:10:38.836Z,-5.60
2023-01-30T04:13:06.319Z,-5.60
2023-01-30T04:15:33.569Z,-5.70
2023-01-30T04:18:00.624Z,-5.40
2023-01-30T04:20:27.795Z,-5.70
2023-01-30T04:22:56.491Z,-5.50
2023-01-30T04:25:23.565Z,-5.70
2023-01-30T04:27:50.681Z,-5.70
2023-01-30T04:30:21.196Z,-5.80
2023-01-30T04:32:48.309Z,-5.60
2023-01-30T04:37:44.334Z,-5.60
2023-01-30T04:40:12.124Z,-6.00
2023-01-30T04:42:39.248Z,-5.90
2023-01-30T04:45:07.144Z,-5.50
2023-01-30T04:50:01.797Z,-5.90
2023-01-30T04:52:28.878Z,-5.50
2023-01-30T04:57:23.452Z,-5.70
2023-01-30T04:59:50.604Z,-5.60
2023-01-30T05:02:17.697Z,-6.00
2023-01-30T05:04:44.786Z,-6.00
2023-01-30T05:07:12.023Z,-5.70
2023-01-30T05:09:39.084Z,-5.70
2023-01-30T05:12:06.443Z,-5.60
2023-01-30T05:14:35.112Z,-5.80
2023-01-30T05:17:02.314Z,-6.00
2023-01-30T05:19:29.463Z,-4.30
2023-01-30T05:21:59.117Z,-5.60
2023-01-30T05:24:26.397Z,-5.80
2023-01-30T05:26:53.559Z,-5.70
2023-01-30T05:29:20.746Z,-5.80
2023-01-30T05:31:47.914Z,-6.10
2023-01-30T05:34:15.104Z,-5.70
2023-01-30T05:36:42.271Z,-5.70
2023-01-30T05:39:09.451Z,-5.60
2023-01-30T05:41:36.618Z,-5.50
2023-01-30T05:44:03.994Z,-5.40
2023-01-30T05:46:32.455Z,-5.50
2023-01-30T05:48:59.672Z,-5.30
2023-01-30T05:51:28.150Z,-5.00
2023-01-30T05:53:55.492Z,-5.40
2023-01-30T05:56:23.887Z,-5.60
2023-01-30T05:58:56.292Z,-5.40
2023-01-30T06:01:24.435Z,-5.70
2023-01-30T06:03:52.192Z,-5.10
2023-01-30T06:06:20.006Z,-5.30
2023-01-30T06:08:48.142Z,-5.20
2023-01-30T06:11:17.450Z,-5.00
2023-01-30T06:13:45.287Z,-5.20
2023-01-30T06:16:15.247Z,-5.30
2023-01-30T06:18:43.181Z,-5.10
2023-01-30T06:21:12.544Z,-5.40
2023-01-30T06:23:39.738Z,-5.30
2023-01-30T06:26:09.202Z,-5.00
2023-01-30T06:28:37.545Z,-5.10
2023-01-30T06:31:08.132Z,-5.20
2023-01-30T06:33:35.737Z,-4.90
2023-01-30T06:36:03.249Z,-5.00
2023-01-30T06:38:31.315Z,-4.30
2023-01-30T06:40:58.482Z,-5.10
2023-01-30T06:43:25.658Z,-4.80
2023-01-30T06:45:52.780Z,-4.90
2023-01-30T06:48:20.093Z,-4.90
2023-01-30T06:50:48.374Z,-4.90
2023-01-30T06:53:18.774Z,-4.90
2023-01-30T06:55:45.916Z,-4.80
2023-01-30T06:58:15.479Z,-3.50
2023-01-30T07:00:43.428Z,-3.80
2023-01-30T07:03:17.805Z,-4.90
2023-01-30T07:05:47.520Z,-5.20
2023-01-30T07:08:17.547Z,-4.70
2023-01-30T07:10:45.771Z,-5.10
2023-01-30T07:13:14.946Z,-4.90
2023-01-30T07:15:42.270Z,-3.40
2023-01-30T07:18:09.430Z,-4.80
2023-01-30T07:20:36.696Z,-4.60
2023-01-30T07:23:04.330Z,-4.40
2023-01-30T07:25:31.575Z,-4.70
2023-01-30T07:28:02.001Z,-4.60
2023-01-30T07:30:32.985Z,-4.40
2023-01-30T07:33:00.676Z,-4.30
2023-01-30T07:35:35.486Z,-4.60
2023-01-30T07:38:03.096Z,-3.40
2023-01-30T07:40:30.291Z,-4.40
2023-01-30T07:43:10.091Z,-4.40
2023-01-30T07:45:47.696Z,-4.40
2023-01-30T07:48:18.587Z,-4.20
2023-01-30T07:50:46.810Z,-4.30
2023-01-30T07:53:16.897Z,-4.20
2023-01-30T07:55:56.569Z,-4.50
2023-01-30T07:58:23.779Z,-4.10
2023-01-30T08:00:50.904Z,-4.10
2023-01-30T08:03:18.147Z,-3.90
2023-01-30T08:05:53.353Z,-4.10
2023-01-30T08:08:20.860Z,-3.90
2023-01-30T08:10:53.875Z,-2.50
2023-01-30T08:13:24.293Z,-3.80
2023-01-30T08:15:53.912Z,-3.60
2023-01-30T08:18:21.128Z,-3.70
2023-01-30T08:20:51.361Z,-3.70
2023-01-30T08:23:18.490Z,-3.60
2023-01-30T08:25:45.723Z,-3.50
2023-01-30T08:28:13.060Z,-4.00
2023-01-30T08:30:43.575Z,-3.80
2023-01-30T08:33:12.710Z,-3.60
2023-01-30T08:35:42.027Z,-3.70
2023-01-30T08:40:39.814Z,-3.40
2023-01-30T08:43:07.261Z,-3.50
2023-01-30T08:45:34.714Z,-3.70
2023-01-30T08:48:06.884Z,-3.70
2023-01-30T08:50:34.541Z,-3.30
2023-01-30T08:53:09.218Z,-3.50
2023-01-30T08:55:36.878Z,-3.40
2023-01-30T08:58:04.038Z,-3.30
2023-01-30T09:00:34.041Z,-3.40
2023-01-30T09:03:02.243Z,-3.10
2023-01-30T09:05:31.509Z,-3.20
2023-01-30T09:07:58.872Z,-1.80
2023-01-30T09:10:26.194Z,-3.40
2023-01-30T09:12:53.492Z,-3.50
2023-01-30T09:17:48.483Z,-3.20
2023-01-30T09:22:51.204Z,-3.50
2023-01-30T09:25:18.543Z,-3.10
2023-01-30T09:27:49.622Z,-3.10
2023-01-30T09:30:18.166Z,-3.60
2023-01-30T09:32:45.686Z,-3.10
2023-01-30T09:35:13.408Z,-3.00
2023-01-30T09:37:51.065Z,-3.20
2023-01-30T09:40:25.151Z,-2.90
2023-01-30T09:43:26.722Z,-3.10
2023-01-30T09:46:45.480Z,-3.10
2023-01-30T09:49:44.170Z,-3.00
2023-01-30T09:52:28.627Z,-3.00
2023-01-30T09:55:15.883Z,-2.90
2023-01-30T09:57:45.312Z,-2.60
2023-01-30T10:00:35.671Z,-2.70
2023-01-30T10:03:13.117Z,-2.80
2023-01-30T10:05:52.917Z,-2.40
2023-01-30T10:08:40.664Z,-2.50
2023-01-30T10:11:31.013Z,-2.40
2023-01-30T10:14:11.836Z,-2.80
2023-01-30T10:17:21.310Z,-2.60
2023-01-30T10:20:10.567Z,-2.70
2023-01-30T10:23:12.885Z,-2.40
2023-01-30T10:25:52.914Z,-2.40
2023-01-30T10:28:30.674Z,-2.20
2023-01-30T10:31:14.095Z,-2.10
2023-01-30T10:37:09.912Z,-2.00
2023-01-30T10:39:58.027Z,-2.30
2023-01-30T10:42:52.737Z,-2.10
2023-01-30T10:45:30.849Z,-1.70
2023-01-30T10:48:47.438Z,-1.10
2023-01-30T10:52:03.885Z,-1.60
2023-01-30T10:55:03.193Z,-1.20
2023-01-30T10:58:12.401Z,-1.20
2023-01-30T11:00:52.405Z,-1.40
2023-01-30T11:03:37.920Z,-1.30
2023-01-30T11:06:23.937Z,-1.40
2023-01-30T11:08:53.276Z,-1.40
2023-01-30T11:11:54.478Z,-1.40
2023-01-30T11:14:21.842Z,-1.60
2023-01-30T11:16:55.545Z,-1.40
2023-01-30T11:19:33.670Z,-1.60
2023-01-30T11:22:05.066Z,-1.50
2023-01-30T11:24:44.931Z,-1.50
2023-01-30T11:27:29.829Z,-1.80
2023-01-30T11:30:29.023Z,-1.50
2023-01-30T11:33:12.752Z,-1.10
2023-01-30T11:36:00.093Z,-1.20
2023-01-30T11:38:32.985Z,-1.20
2023-01-30T11:41:10.959Z,-1.20
2023-01-30T11:43:40.076Z,-1.00
2023-01-30T11:46:11.523Z,-1.00
2023-01-30T11:49:14.112Z,-1.10
2023-01-30T11:51:46.523Z,-1.10
2023-01-30T11:54:20.227Z,-1.00
2023-01-30T11:56:57.013Z,-1.00
2023-01-30T11:59:43.555Z,-1.40
2023-01-30T12:02:35.592Z,-0.90
2023-01-30T12:05:36.951Z,-0.90
2023-01-30T12:08:31.127Z,-1.30
2023-01-30T12:11:47.103Z,-1.00
2023-01-30T12:14:45.127Z,-0.90
2023-01-30T12:17:39.895Z,-0.80
2023-01-30T12:20:44.694Z,-1.10
2023-01-30T12:23:42.561Z,-0.70
2023-01-30T12:26:30.966Z,-0.70
2023-01-30T12:29:19.911Z,-1.00
2023-01-30T12:32:01.453Z,-0.80
2023-01-30T12:34:28.581Z,-0.70
2023-01-30T12:37:20.143Z,-0.60
2023-01-30T12:40:02.104Z,-0.60
2023-01-30T12:43:12.033Z,-0.70
2023-01-30T12:45:57.766Z,-0.70
2023-01-30T12:48:48.768Z,-0.50
2023-01-30T12:51:49.302Z,-0.40
2023-01-30T12:55:05.281Z,-0.50
2023-01-30T12:58:06.521Z,-0.50
2023-01-30T13:00:56.490Z,-0.90
2023-01-30T13:03:50.819Z,-0.60
2023-01-30T13:06:32.903Z,-0.50
2023-01-30T13:09:25.869Z,-0.60
2023-01-30T13:12:23.850Z,-0.60
2023-01-30T13:15:21.655Z,-0.70
2023-01-30T13:18:14.758Z,-0.70
2023-01-30T13:20:59.555Z,-0.60
2023-01-30T13:24:06.199Z,-0.50
2023-01-30T13:26:37.582Z,-0.50
2023-01-30T13:29:43.359Z,-0.50
2023-01-30T13:32:34.870Z,-0.70
2023-01-30T13:35:17.109Z,-0.50
2023-01-30T13:37:49.264Z,-0.60
2023-01-30T13:40:26.105Z,-0.40
2023-01-30T13:43:11.066Z,-0.70
2023-01-30T13:45:46.307Z,-0.60
2023-01-30T13:49:03.507Z,-0.60
2023-01-30T13:51:36.405Z,-0.50
2023-01-30T13:54:49.048Z,-0.70
2023-01-30T13:57:42.783Z,-0.30
2023-01-30T14:00:36.668Z,-0.60
2023-01-30T14:03:16.606Z,-0.50
2023-01-30T14:05:52.959Z,-0.50
2023-01-30T14:08:30.421Z,-0.40
2023-01-30T14:10:59.070Z,-0.40
2023-01-30T14:13:29.723Z,2.00
2023-01-30T14:16:00.497Z,-0.30
2023-01-30T14:18:34.058Z,-0.40
2023-01-30T14:21:22.743Z,-0.30
2023-01-30T14:24:03.979Z,-0.30
2023-01-30T14:26:50.472Z,-0.30
2023-01-30T14:29:41.033Z,-0.50
2023-01-30T14:32:14.649Z,-0.50
2023-01-30T14:35:02.878Z,-0.20
2023-01-30T14:37:38.551Z,-0.40
2023-01-30T14:40:24.074Z,-0.40
2023-01-30T14:43:13.382Z,-0.30
2023-01-30T14:45:52.653Z,-0.40
2023-01-30T14:48:36.745Z,-0.20
2023-01-30T14:51:39.214Z,-0.40
2023-01-30T14:54:13.149Z,-0.40
2023-01-30T14:56:46.719Z,-0.50
2023-01-30T14:59:16.858Z,-0.30
2023-01-30T15:02:14.513Z,-0.20
2023-01-30T15:05:05.850Z,-0.40
2023-01-30T15:08:04.151Z,-0.40
2023-01-30T15:11:15.399Z,-0.60
2023-01-30T15:14:04.639Z,-0.60
2023-01-30T15:16:59.956Z,-0.60
2023-01-30T15:19:49.099Z,-0.50
2023-01-30T15:22:54.924Z,-0.40
2023-01-30T15:26:07.001Z,-0.60
2023-01-30T15:28:52.853Z,-0.50
2023-01-30T15:31:24.502Z,-0.30
2023-01-30T15:33:56.867Z,-0.60
2023-01-30T15:36:33.298Z,-0.40
2023-01-30T15:39:23.935Z,-0.50
2023-01-30T15:41:57.265Z,-0.50
2023-01-30T15:44:52.554Z,-0.50
2023-01-30T15:47:53.493Z,-0.40
2023-01-30T15:50:21.227Z,-0.40
2023-01-30T15:52:51.574Z,-0.50
2023-01-30T15:55:34.155Z,-0.50
2023-01-30T15:58:17.890Z,-0.40
2023-01-30T16:00:49.742Z,-0.30
2023-01-30T16:03:49.173Z,-0.50
2023-01-30T16:06:36.928Z,-0.30
2023-01-30T16:09:26.244Z,-0.30
2023-01-30T16:11:53.329Z,-0.50
2023-01-30T16:14:22.778Z,-0.40
2023-01-30T16:17:02.414Z,-0.30
2023-01-30T16:19:34.068Z,-0.40
2023-01-30T16:22:05.547Z,-0.30
2023-01-30T16:24:36.795Z,-0.40
2023-01-30T16:27:13.128Z,-0.40
2023-01-30T16:29:55.397Z,-0.30
2023-01-30T16:32:29.057Z,-0.10
2023-01-30T16:35:28.132Z,-0.20
2023-01-30T16:37:58.484Z,-0.20
2023-01-30T16:40:43.668Z,-0.30
2023-01-30T16:43:25.075Z,-0.40
2023-01-30T16:45:55.206Z,-0.30
2023-01-30T16:48:38.852Z,-0.30
2023-01-30T16:51:19.147Z,-0.40
2023-01-30T16:53:58.881Z,-0.40
2023-01-30T16:56:27.951Z,-0.40
2023-01-30T16:59:00.682Z,-0.40
2023-01-30T17:01:41.472Z,-0.30
2023-01-30T17:04:21.435Z,-0.20
2023-01-30T17:06:57.476Z,-0.20
2023-01-30T17:09:47.205Z,-0.30
2023-01-30T17:12:39.464Z,-0.20
2023-01-30T17:15:09.590Z,-0.30
2023-01-30T17:17:36.699Z,0.20
2023-01-30T17:20:05.515Z,-0.30
2023-01-30T17:22:33.307Z,-0.40
2023-01-30T17:25:14.012Z,-0.50
2023-01-30T17:27:41.142Z,-0.40
2023-01-30T17:30:19.700Z,1.30
2023-01-30T17:32:46.971Z,-0.40
2023-01-30T17:35:14.419Z,-0.30
2023-01-30T17:37:44.013Z,-0.40
2023-01-30T17:40:27.595Z,0.00
2023-01-30T17:42:54.781Z,0.00
2023-01-30T17:45:21.963Z,-0.50
2023-01-30T17:47:49.247Z,-0.20
2023-01-30T17:50:18.230Z,-0.40
2023-01-30T17:52:45.580Z,-0.40
2023-01-30T17:55:21.402Z,-0.10
2023-01-30T17:57:49.697Z,-0.40
2023-01-30T18:00:21.370Z,0.70
2023-01-30T18:02:49.182Z,-0.10
2023-01-30T18:05:17.434Z,-0.40
2023-01-30T18:07:44.689Z,-0.50
2023-01-30T18:10:17.438Z,-0.50
2023-01-30T18:12:45.615Z,-0.10
2023-01-30T18:15:15.652Z,-0.20
2023-01-30T18:17:48.307Z,1.10
2023-01-30T18:20:19.848Z,-0.40
2023-01-30T18:22:47.182Z,-0.10
2023-01-30T18:25:15.276Z,0.00
2023-01-30T18:27:44.501Z,-0.10
2023-01-30T18:30:17.384Z,0.10
2023-01-30T18:32:53.653Z,0.10
2023-01-30T18:35:23.204Z,-0.10
2023-01-30T18:37:50.581Z,0.40
2023-01-30T18:40:19.338Z,-0.10
2023-01-30T18:42:47.028Z,-0.10
2023-01-30T18:45:14.205Z,0.10
2023-01-30T18:47:41.559Z,-0.30
2023-01-30T18:50:09.513Z,0.10
2023-01-30T18:52:36.976Z,0.00
2023-01-30T18:55:04.395Z,0.20
2023-01-30T18:57:31.521Z,-0.10
2023-01-30T18:59:58.848Z,-0.30
2023-01-30T19:04:53.436Z,0.10
2023-01-30T19:07:20.468Z,-0.10
2023-01-30T19:09:52.733Z,0.50
2023-01-30T19:12:46.613Z,0.20
2023-01-30T19:15:15.468Z,0.20
2023-01-30T19:17:42.609Z,0.20
2023-01-30T19:20:12.154Z,0.20
2023-01-30T19:22:39.789Z,0.20
2023-01-30T19:25:10.629Z,0.10
2023-01-30T19:27:41.552Z,0.40
2023-01-30T19:30:09.667Z,0.30
2023-01-30T19:32:37.146Z,0.30
2023-01-30T19:35:04.815Z,0.40
2023-01-30T19:37:31.996Z,0.40
2023-01-30T19:39:59.159Z,0.40
2023-01-30T19:42:26.613Z,0.30
2023-01-30T19:44:53.863Z,0.40
2023-01-30T19:47:22.116Z,0.50
2023-01-30T19:49:49.681Z,0.40
2023-01-30T19:52:16.908Z,0.70
2023-01-30T19:54:47.025Z,0.80
2023-01-30T19:57:14.471Z,0.90
2023-01-30T19:59:42.813Z,0.50
2023-01-30T20:02:14.306Z,0.60
2023-01-30T20:04:41.511Z,0.70
2023-01-30T20:07:08.634Z,0.50
2023-01-30T20:09:35.856Z,0.90
2023-01-30T20:12:03.110Z,0.50
2023-01-30T20:14:31.387Z,0.90
2023-01-30T20:17:04.472Z,0.50
2023-01-30T20:19:31.745Z,0.70
2023-01-30T20:21:59.378Z,0.40
2023-01-30T20:24:27.445Z,0.90
2023-01-30T20:26:54.562Z,0.90
2023-01-30T20:29:21.780Z,0.60
2023-01-30T20:31:49.051Z,0.50
2023-01-30T20:34:16.527Z,0.80
2023-01-30T20:36:43.815Z,0.60
2023-01-30T20:39:11.544Z,0.70
2023-01-30T20:41:39.046Z,0.70
2023-01-30T20:44:11.145Z,0.50
2023-01-30T20:46:45.142Z,0.80
2023-01-30T20:49:23.153Z,0.80
2023-01-30T20:51:53.263Z,0.40
2023-01-30T20:54:23.237Z,0.90
2023-01-30T20:56:53.982Z,0.80
2023-01-30T20:59:24.749Z,0.80
2023-01-30T21:01:53.301Z,1.00
2023-01-30T21:04:24.815Z,1.60
2023-01-30T21:06:53.421Z,0.90
2023-01-30T21:09:23.589Z,0.90
2023-01-30T21:11:53.481Z,0.90
2023-01-30T21:14:20.738Z,0.70
2023-01-30T21:16:48.767Z,1.00
2023-01-30T21:19:17.875Z,0.70
2023-01-30T21:21:53.617Z,1.20
2023-01-30T21:24:30.460Z,0.90
2023-01-30T21:26:58.113Z,0.80
2023-01-30T21:29:28.665Z,1.10
2023-01-30T21:31:59.079Z,1.10
2023-01-30T21:34:26.413Z,1.00
2023-01-30T21:37:12.599Z,0.70
2023-01-30T21:39:58.994Z,1.20
2023-01-30T21:42:44.381Z,1.60
2023-01-30T21:45:11.605Z,1.00
2023-01-30T21:47:38.906Z,1.00
2023-01-30T21:50:07.052Z,2.20
2023-01-30T21:52:34.274Z,1.20
2023-01-30T21:55:01.303Z,1.00
2023-01-30T21:57:28.483Z,1.10
2023-01-30T21:59:56.398Z,0.80
2023-01-30T22:02:23.638Z,1.10
2023-01-30T22:07:18.238Z,0.80
2023-01-30T22:09:45.442Z,0.80
2023-01-30T22:12:12.505Z,1.00
2023-01-30T22:14:39.818Z,1.00
2023-01-30T22:17:06.966Z,1.00
2023-01-30T22:19:35.859Z,1.00
2023-01-30T22:22:04.285Z,1.10
2023-01-30T22:24:31.734Z,1.20
2023-01-30T22:27:00.378Z,1.30
2023-01-30T22:29:29.173Z,1.10
2023-01-30T22:31:56.496Z,1.10
2023-01-30T22:34:23.643Z,1.00
2023-01-30T22:36:51.863Z,2.60
2023-01-30T22:39:18.977Z,1.30
2023-01-30T22:44:13.665Z,1.40
2023-01-30T22:46:41.477Z,1.10
2023-01-30T22:49:09.669Z,0.90
2023-01-30T22:51:41.322Z,1.10
2023-01-30T22:54:16.123Z,1.10
2023-01-30T22:56:46.872Z,1.10
2023-01-30T22:59:15.123Z,1.00
2023-01-30T23:01:46.473Z,1.20
2023-01-30T23:04:16.685Z,1.10
2023-01-30T23:06:44.414Z,1.00
2023-01-30T23:09:17.635Z,2.90
2023-01-30T23:12:11.066Z,2.70
2023-01-30T23:14:39.317Z,1.10
2023-01-30T23:17:26.512Z,1.00
2023-01-30T23:19:54.775Z,1.00
2023-01-30T23:22:22.151Z,1.00
2023-01-30T23:24:52.561Z,0.90
2023-01-30T23:27:21.308Z,1.00
2023-01-30T23:29:48.581Z,1.00
2023-01-30T23:32:19.150Z,0.90
2023-01-30T23:34:50.370Z,1.00
2023-01-30T23:37:18.071Z,0.80
2023-01-30T23:39:45.910Z,1.00
2023-01-30T23:42:16.399Z,0.70
2023-01-30T23:44:43.651Z,0.80
2023-01-30T23:47:10.744Z,0.60
2023-01-30T23:49:38.002Z,1.00
2023-01-30T23:52:05.328Z,1.00
2023-01-30T23:54:32.495Z,0.90
2023-01-30T23:56:59.563Z,1.10
2023-01-30T23:59:26.616Z,1.00
